Time;durP1;ratioP1;P1;durP2;ratioP2;P2;SDS_P1;SDS_P2;PMS_P1;PMS_P2;Temp;Humidity;BMP_temperature;BMP_pressure;BME280_temperature;BME280_humidity;BME280_pressure;Samples;Min_cycle;Max_cycle;Signal;HPM_P1;HPM_P2
2021/05/30 00:02:15;;;;;;;32.58;8.73;;;;;;;20.47;40.50;98028.59;6159488;23;20024;-86
2021/05/30 00:04:41;;;;;;;26.15;6.55;;;;;;;20.43;40.77;98014.63;6110430;23;20103;-86
2021/05/30 00:07:09;;;;;;;16.85;7.15;;;;;;;20.55;40.84;98021.03;6185732;23;20099;-86
2021/05/30 00:09:38;;;;;;;22.05;6.65;;;;;;;20.63;40.74;98016.41;6188797;23;20080;-85
2021/05/30 00:12:07;;;;;;;24.37;7.13;;;;;;;20.73;40.55;98014.03;6212187;23;20028;-81
2021/05/30 00:14:33;;;;;;;25.77;7.13;;;;;;;20.81;40.66;98011.06;6185070;23;20240;-82
2021/05/30 00:16:59;;;;;;;19.98;7.35;;;;;;;20.90;40.29;98009.72;6137072;23;20021;-83
2021/05/30 00:19:25;;;;;;;22.70;7.88;;;;;;;20.95;40.20;98006.31;6185668;23;20017;-83
2021/05/30 00:21:51;;;;;;;18.50;7.05;;;;;;;20.99;40.13;97997.53;6189656;23;20024;-84
2021/05/30 00:24:17;;;;;;;20.35;7.07;;;;;;;21.13;40.00;97998.22;6088200;23;20045;-83
2021/05/30 00:26:43;;;;;;;28.80;7.80;;;;;;;21.21;39.97;98005.25;6086598;23;20364;-83
2021/05/30 00:29:09;;;;;;;33.63;7.82;;;;;;;21.23;39.84;98000.44;6184122;23;20021;-83
2021/05/30 00:31:35;;;;;;;23.17;8.23;;;;;;;21.23;39.88;98003.16;6159340;23;20021;-84
2021/05/30 00:34:01;;;;;;;24.88;7.90;;;;;;;21.24;39.51;98010.25;6209334;23;20179;-87
2021/05/30 00:36:27;;;;;;;22.67;7.93;;;;;;;21.20;39.78;98007.16;6185527;23;20028;-84
2021/05/30 00:38:53;;;;;;;27.35;7.78;;;;;;;21.28;39.87;98006.84;6185458;23;20114;-82
2021/05/30 00:41:19;;;;;;;23.27;7.90;;;;;;;21.39;39.56;98002.59;6185314;23;20028;-84
2021/05/30 00:43:52;;;;;;;17.10;7.53;;;;;;;21.40;39.72;97998.84;6134924;23;20468;-83
2021/05/30 00:46:19;;;;;;;29.55;8.10;;;;;;;21.45;39.60;98001.72;6159609;23;20052;-84
2021/05/30 00:48:45;;;;;;;22.70;6.85;;;;;;;21.61;39.73;98007.59;6185448;23;20108;-85
2021/05/30 00:51:11;;;;;;;19.08;6.60;;;;;;;21.67;39.86;97995.84;6185316;23;20025;-85
2021/05/30 00:53:37;;;;;;;22.35;6.35;;;;;;;21.79;39.31;97992.13;6110632;23;20425;-84
2021/05/30 00:56:07;;;;;;;13.38;6.72;;;;;;;22.02;39.46;98007.72;6134670;23;20480;-85
2021/05/30 00:58:34;;;;;;;27.02;7.82;;;;;;;22.19;38.80;98001.69;6160005;23;20023;-83
2021/05/30 01:01:00;;;;;;;25.65;7.93;;;;;;;22.26;38.47;97996.97;6209580;23;20017;-85
2021/05/30 01:03:26;;;;;;;17.58;7.50;;;;;;;22.58;38.80;98011.19;6185581;23;20017;-84
2021/05/30 01:05:52;;;;;;;21.92;7.35;;;;;;;22.85;39.07;97997.97;6186810;23;20020;-84
2021/05/30 01:08:26;;;;;;;20.73;7.68;;;;;;;22.99;38.53;97994.00;6111878;23;20033;-88
2021/05/30 01:10:52;;;;;;;25.95;9.10;;;;;;;23.26;37.53;97999.81;6186300;23;20028;-84
2021/05/30 01:13:18;;;;;;;33.20;7.93;;;;;;;23.17;37.13;97978.59;6136327;23;20021;-84
2021/05/30 01:15:44;;;;;;;21.13;9.30;;;;;;;22.87;37.95;97986.84;6087893;23;20456;-83
2021/05/30 01:18:10;;;;;;;32.25;13.18;;;;;;;22.76;38.30;97996.69;6136229;23;20021;-82
2021/05/30 01:20:36;;;;;;;26.60;14.73;;;;;;;22.69;38.30;97991.31;6160861;23;20013;-82
2021/05/30 01:23:06;;;;;;;45.72;21.35;;;;;;;22.77;38.94;97998.31;6185397;23;20021;-82
2021/05/30 01:25:32;;;;;;;39.63;24.27;;;;;;;22.70;38.94;98009.31;6136547;23;20021;-82
2021/05/30 01:27:58;;;;;;;40.22;22.52;;;;;;;22.65;39.20;98003.75;6135992;23;20023;-83
2021/05/30 01:30:24;;;;;;;40.13;18.02;;;;;;;22.57;39.65;98004.09;6184742;23;20095;-84
2021/05/30 01:32:51;;;;;;;36.72;16.67;;;;;;;22.24;39.69;97978.16;6136129;23;20107;-83
2021/05/30 01:35:17;;;;;;;317.20;19.60;;;;;;;21.83;41.32;97973.44;6162456;23;20092;-83
2021/05/30 01:37:43;;;;;;;45.92;8.98;;;;;;;21.48;43.07;98012.13;6189344;23;20044;-83
2021/05/30 01:40:10;;;;;;;21.73;6.35;;;;;;;21.44;42.17;98021.81;6141570;23;20056;-83
2021/05/30 01:42:35;;;;;;;21.77;7.55;;;;;;;21.43;41.95;98019.28;6187445;23;20024;-83
2021/05/30 01:45:01;;;;;;;23.05;6.28;;;;;;;21.37;42.23;98014.78;6161057;23;20081;-85
2021/05/30 01:47:28;;;;;;;21.23;5.63;;;;;;;21.28;43.35;98030.47;6160780;23;20465;-84
2021/05/30 01:49:54;;;;;;;22.05;7.45;;;;;;;21.15;45.69;98011.59;6184945;23;20397;-83
2021/05/30 01:52:20;;;;;;;38.38;6.10;;;;;;;21.08;45.55;98023.34;6160590;23;20024;-81
2021/05/30 01:54:49;;;;;;;23.50;5.05;;;;;;;21.13;44.98;98030.00;6185267;23;20025;-85
2021/05/30 01:57:18;;;;;;;32.97;6.22;;;;;;;21.04;44.45;98022.13;6210376;23;20025;-82
2021/05/30 01:59:45;;;;;;;24.60;7.63;;;;;;;20.80;44.55;98020.25;6111591;23;20449;-88
2021/05/30 02:02:11;;;;;;;20.70;5.40;;;;;;;20.78;46.28;98033.22;6111845;23;20020;-85
2021/05/30 02:04:41;;;;;;;19.55;6.70;;;;;;;20.55;47.78;98029.19;6160144;23;20024;-84
2021/05/30 02:07:07;;;;;;;22.25;4.45;;;;;;;20.55;47.27;98028.34;6135851;23;20453;-82
2021/05/30 02:09:34;;;;;;;14.23;4.10;;;;;;;20.63;47.66;98019.94;6111290;23;20059;-84
2021/05/30 02:12:00;;;;;;;20.45;5.28;;;;;;;20.48;47.57;98008.53;6160078;23;20420;-83
2021/05/30 02:14:26;;;;;;;20.52;6.22;;;;;;;20.33;48.21;98006.13;6136662;23;20428;-83
2021/05/30 02:16:51;;;;;;;12.75;6.38;;;;;;;20.26;47.42;98017.00;6186390;23;20056;-84
2021/05/30 02:19:17;;;;;;;18.17;6.75;;;;;;;20.42;46.99;97995.81;6135529;23;20028;-86
2021/05/30 02:21:48;;;;;;;24.15;5.95;;;;;;;20.73;47.68;98005.91;6138712;23;20020;-89
2021/05/30 02:24:14;;;;;;;19.42;6.88;;;;;;;20.97;47.38;98010.50;6188512;23;20009;-85
2021/05/30 02:26:41;;;;;;;20.50;8.30;;;;;;;20.92;45.88;98007.63;6115561;23;20349;-86
2021/05/30 02:29:07;;;;;;;16.38;7.68;;;;;;;21.10;46.17;98018.53;6185517;23;20021;-88
2021/05/30 02:31:32;;;;;;;15.70;8.48;;;;;;;21.13;45.98;98019.13;6160637;23;20051;-80
2021/05/30 02:33:58;;;;;;;19.40;7.47;;;;;;;20.98;45.81;98017.56;6135342;23;20475;-77
2021/05/30 02:36:26;;;;;;;21.17;7.63;;;;;;;20.98;45.95;98020.28;6135214;23;20398;-77
2021/05/30 02:38:52;;;;;;;16.67;6.47;;;;;;;20.96;46.21;98019.69;6159926;23;20040;-78
2021/05/30 02:41:19;;;;;;;20.25;7.20;;;;;;;20.93;46.20;98025.56;6135743;23;20023;-80
2021/05/30 02:43:47;;;;;;;13.85;6.13;;;;;;;21.07;46.50;98020.88;6111113;23;20104;-78
2021/05/30 02:46:13;;;;;;;14.10;6.68;;;;;;;21.14;46.50;98027.06;6160261;23;20088;-79
2021/05/30 02:48:39;;;;;;;12.38;5.38;;;;;;;21.24;46.46;98027.38;6184562;23;20106;-78
2021/05/30 02:51:05;;;;;;;14.07;5.40;;;;;;;21.27;46.88;98026.13;6159779;23;20465;-77
2021/05/30 02:53:31;;;;;;;8.27;4.60;;;;;;;21.30;46.21;98020.25;6184558;23;20079;-77
2021/05/30 02:55:58;;;;;;;8.85;4.88;;;;;;;21.18;46.21;98005.72;6135437;23;20060;-78
2021/05/30 02:58:24;;;;;;;18.13;5.97;;;;;;;21.19;45.52;98007.38;6185842;23;20017;-79
2021/05/30 03:00:50;;;;;;;22.50;6.25;;;;;;;21.32;45.37;98007.25;6159641;23;20023;-78
2021/05/30 03:03:16;;;;;;;13.93;7.38;;;;;;;21.42;45.42;98012.19;6159520;23;20337;-78
2021/05/30 03:05:42;;;;;;;23.35;12.57;;;;;;;21.50;45.21;98012.72;6184450;23;20021;-79
2021/05/30 03:08:08;;;;;;;14.02;7.35;;;;;;;21.48;44.31;98025.75;6111132;23;20040;-78
2021/05/30 03:10:34;;;;;;;14.60;7.07;;;;;;;21.61;44.16;98026.66;6184669;23;20449;-78
2021/05/30 03:13:00;;;;;;;9.88;6.13;;;;;;;21.69;43.88;98012.75;6184278;23;20017;-79
2021/05/30 03:15:26;;;;;;;8.93;6.65;;;;;;;21.99;43.27;98018.25;6159527;23;20491;-79
2021/05/30 03:17:52;;;;;;;13.98;3.60;;;;;;;21.90;42.75;98014.19;6159923;23;20017;-78
2021/05/30 03:20:18;;;;;;;6.30;2.90;;;;;;;21.69;43.04;98007.31;6185704;23;20032;-78
2021/05/30 03:22:44;;;;;;;9.02;2.90;;;;;;;21.69;43.36;98005.41;6134986;23;20021;-77
2021/05/30 03:25:10;;;;;;;19.77;3.20;;;;;;;21.88;43.28;97995.34;6134521;23;20100;-78
2021/05/30 03:27:36;;;;;;;11.23;2.97;;;;;;;21.92;43.36;98015.59;6159645;23;20021;-79
2021/05/30 03:30:03;;;;;;;5.35;2.58;;;;;;;21.67;43.99;98001.28;6110543;23;20013;-78
2021/05/30 03:32:29;;;;;;;12.27;2.88;;;;;;;21.75;44.05;98001.78;6135091;23;20112;-79
2021/05/30 03:34:55;;;;;;;14.35;3.22;;;;;;;21.98;44.14;98001.09;6134934;23;20052;-79
2021/05/30 03:37:21;;;;;;;9.88;4.45;;;;;;;22.14;44.37;98005.09;6185791;23;20013;-80
2021/05/30 03:39:47;;;;;;;13.38;5.95;;;;;;;22.33;44.82;98011.34;6183961;23;20151;-79
2021/05/30 03:42:18;;;;;;;24.63;12.73;;;;;;;22.40;45.05;97997.63;6158957;23;20017;-77
2021/05/30 03:44:44;;;;;;;26.08;14.82;;;;;;;22.40;45.22;98006.63;6161395;23;20017;-78
2021/05/30 03:47:12;;;;;;;25.35;15.13;;;;;;;22.56;45.11;98002.41;6158797;23;20028;-81
2021/05/30 03:49:42;;;;;;;35.13;19.23;;;;;;;22.50;45.78;97996.00;6135233;23;20017;-82
2021/05/30 03:52:08;;;;;;;43.53;23.05;;;;;;;22.46;46.60;97997.53;6184010;23;20084;-82
2021/05/30 03:54:35;;;;;;;43.10;21.52;;;;;;;22.59;47.61;98012.84;6134936;23;20027;-82
2021/05/30 03:57:01;;;;;;;46.70;23.30;;;;;;;23.07;46.33;98008.34;6183858;23;20025;-80
2021/05/30 03:59:27;;;;;;;46.53;25.77;;;;;;;23.04;46.74;98001.47;6158966;23;20044;-80
2021/05/30 04:01:53;;;;;;;50.25;27.52;;;;;;;23.11;46.90;98004.09;6159396;23;20425;-79
2021/05/30 04:04:19;;;;;;;61.33;33.40;;;;;;;23.20;46.41;98000.75;6087583;23;20028;-79
2021/05/30 04:06:45;;;;;;;62.88;34.65;;;;;;;23.55;45.80;98007.31;6193518;23;20017;-81
2021/05/30 04:09:11;;;;;;;67.45;33.97;;;;;;;23.93;45.12;98009.50;6169927;23;20013;-78
2021/05/30 04:11:37;;;;;;;92.40;41.67;;;;;;;23.72;45.82;97995.41;6159655;23;20047;-80
2021/05/30 04:14:03;;;;;;;90.60;40.15;;;;;;;23.78;46.04;98006.47;6160064;23;20467;-83
2021/05/30 04:16:30;;;;;;;97.97;42.70;;;;;;;23.99;45.73;98008.53;6113631;23;20029;-80
2021/05/30 04:18:56;;;;;;;79.82;34.90;;;;;;;24.37;45.04;98005.22;6188252;23;20087;-80
2021/05/30 04:21:22;;;;;;;74.00;33.13;;;;;;;24.82;44.36;97998.09;6186298;23;20028;-80
2021/05/30 04:23:48;;;;;;;75.75;36.78;;;;;;;24.63;44.50;97984.66;6133412;23;20028;-81
2021/05/30 04:26:14;;;;;;;91.95;39.50;;;;;;;24.63;44.79;98013.88;6158932;23;20017;-81
2021/05/30 04:28:40;;;;;;;81.45;37.95;;;;;;;24.64;44.89;98001.91;6134843;23;20509;-80
2021/05/30 04:31:06;;;;;;;81.78;39.83;;;;;;;24.95;44.58;98015.00;6134666;23;20017;-80
2021/05/30 04:33:32;;;;;;;86.40;39.55;;;;;;;25.23;44.26;98010.53;6134309;23;20108;-80
2021/05/30 04:35:58;;;;;;;84.75;39.72;;;;;;;25.65;43.84;98005.44;6183791;23;20017;-80
2021/05/30 04:38:24;;;;;;;65.55;28.38;;;;;;;25.92;42.31;98008.28;6136720;23;20083;-82
2021/05/30 04:40:50;;;;;;;64.07;24.95;;;;;;;26.14;41.01;98007.47;6112032;23;20076;-81
2021/05/30 04:43:16;;;;;;;73.00;21.00;;;;;;;26.31;40.25;98010.94;6136549;23;20025;-82
2021/05/30 04:45:42;;;;;;;67.00;18.50;;;;;;;26.67;39.28;98005.88;6161259;23;20048;-83
2021/05/30 04:48:08;;;;;;;48.08;17.33;;;;;;;27.11;38.38;98013.94;6161243;23;20401;-83
2021/05/30 04:50:34;;;;;;;63.05;18.17;;;;;;;27.70;37.89;98016.53;6136334;23;20028;-82
2021/05/30 04:53:01;;;;;;;57.60;14.77;;;;;;;27.95;36.65;98001.34;6088795;23;20024;-81
2021/05/30 04:55:27;;;;;;;38.92;9.80;;;;;;;28.16;35.71;98014.03;6160880;23;20021;-84
2021/05/30 04:57:53;;;;;;;28.10;6.10;;;;;;;28.19;34.15;98018.19;6136780;23;20052;-83
2021/05/30 05:00:20;;;;;;;17.05;5.07;;;;;;;28.44;34.04;98006.47;6136636;23;20024;-84
2021/05/30 05:02:46;;;;;;;17.50;4.03;;;;;;;28.61;34.06;98004.28;6136428;23;20072;-85
2021/05/30 05:05:12;;;;;;;17.33;4.65;;;;;;;29.00;33.48;98006.59;6186916;23;20021;-83
2021/05/30 05:07:40;;;;;;;17.80;4.30;;;;;;;29.00;33.58;97999.16;6161132;23;20017;-82
2021/05/30 05:10:07;;;;;;;13.20;3.90;;;;;;;29.18;33.52;97997.75;6136935;23;20056;-82
2021/05/30 05:12:34;;;;;;;13.65;3.83;;;;;;;29.18;33.87;97996.94;6161664;23;20025;-82
2021/05/30 05:14:59;;;;;;;8.30;3.50;;;;;;;29.24;31.98;97995.84;6161153;23;20021;-82
2021/05/30 05:17:26;;;;;;;16.20;3.55;;;;;;;29.35;31.62;98014.00;6160750;23;20437;-83
2021/05/30 05:19:52;;;;;;;17.20;3.78;;;;;;;29.44;31.59;98011.50;6136341;23;20080;-83
2021/05/30 05:22:18;;;;;;;14.23;3.22;;;;;;;29.48;30.88;98009.81;6185409;23;20445;-85
2021/05/30 05:24:44;;;;;;;13.55;3.00;;;;;;;29.58;30.55;98003.53;6187091;23;20119;-86
2021/05/30 05:27:10;;;;;;;9.52;2.72;;;;;;;29.48;29.83;98002.38;6186725;23;20023;-89
2021/05/30 05:29:36;;;;;;;10.07;2.58;;;;;;;29.61;30.04;97994.72;6186859;23;20024;-90
2021/05/30 05:32:03;;;;;;;8.38;2.78;;;;;;;29.59;29.73;97981.19;6161729;23;20024;-88
2021/05/30 05:34:29;;;;;;;12.10;2.67;;;;;;;29.76;30.02;97992.72;6189206;23;20021;-89
2021/05/30 05:36:55;;;;;;;10.85;2.78;;;;;;;29.79;28.53;97999.63;6194990;23;20094;-86
2021/05/30 05:39:21;;;;;;;7.38;2.78;;;;;;;29.80;29.33;97997.69;6164309;23;20352;-88
2021/05/30 05:41:49;;;;;;;10.38;2.35;;;;;;;29.83;28.84;97988.88;6125563;23;20040;-92
2021/05/30 05:44:15;;;;;;;11.30;3.08;;;;;;;29.92;29.37;97978.91;6149478;23;20079;-84
2021/05/30 05:46:41;;;;;;;14.02;3.00;;;;;;;30.04;29.44;97993.16;6187180;23;20437;-84
2021/05/30 05:49:07;;;;;;;11.15;2.40;;;;;;;29.97;28.95;97984.38;6135740;23;20021;-85
2021/05/30 05:51:33;;;;;;;8.98;2.50;;;;;;;29.84;29.25;97973.97;6186625;23;20021;-83
2021/05/30 05:53:59;;;;;;;11.60;2.80;;;;;;;30.02;29.19;97992.63;6136745;23;20052;-84
2021/05/30 05:56:25;;;;;;;15.25;2.80;;;;;;;30.27;29.13;97979.84;6186973;23;20119;-83
2021/05/30 05:58:51;;;;;;;10.48;2.83;;;;;;;29.73;29.15;97978.69;6160860;23;20041;-83
2021/05/30 06:01:18;;;;;;;17.70;2.72;;;;;;;29.22;30.00;97979.56;6111591;23;20055;-84
2021/05/30 06:03:44;;;;;;;8.90;2.80;;;;;;;29.35;29.81;97980.13;6186185;23;20040;-83
2021/05/30 06:06:10;;;;;;;10.80;2.80;;;;;;;29.52;29.54;97981.44;6137842;23;20048;-85
2021/05/30 06:08:36;;;;;;;13.35;2.80;;;;;;;29.79;29.28;97968.47;6136636;23;20047;-84
2021/05/30 06:11:02;;;;;;;5.28;2.60;;;;;;;29.81;29.21;97966.28;6161567;23;20020;-85
2021/05/30 06:13:28;;;;;;;12.23;2.72;;;;;;;29.76;29.82;97973.44;6140224;23;20080;-84
2021/05/30 06:15:55;;;;;;;16.27;2.67;;;;;;;29.92;29.63;97976.97;6113631;23;20032;-86
2021/05/30 06:18:23;;;;;;;18.77;3.33;;;;;;;29.92;30.00;97984.41;6114423;23;20468;-87
2021/05/30 06:20:49;;;;;;;18.27;4.18;;;;;;;30.05;29.98;97975.53;6091697;23;20021;-85
2021/05/30 06:23:15;;;;;;;13.95;3.50;;;;;;;30.21;29.78;97976.31;6187116;23;20020;-86
2021/05/30 06:25:42;;;;;;;16.15;3.40;;;;;;;30.17;30.18;97978.81;6192432;23;20017;-86
2021/05/30 06:28:11;;;;;;;12.32;3.53;;;;;;;29.80;30.12;97979.22;6165194;23;20068;-84
2021/05/30 06:30:39;;;;;;;21.73;3.80;;;;;;;29.44;30.47;97975.69;6164777;23;20099;-83
2021/05/30 06:33:06;;;;;;;;;;;;;;;29.47;30.93;97983.41;6189926;23;20048;-82
2021/05/30 06:35:33;;;;;;;9.23;3.42;;;;;;;29.83;30.30;97986.94;6160440;23;19916;-84
2021/05/30 06:38:01;;;;;;;15.68;3.25;;;;;;;29.97;29.49;97976.09;6113080;23;20023;-85
2021/05/30 06:40:27;;;;;;;15.23;3.50;;;;;;;30.07;29.20;97981.59;6160912;23;20025;-85
2021/05/30 06:42:53;;;;;;;13.15;3.08;;;;;;;30.04;29.09;97986.84;6135624;23;20013;-83
2021/05/30 06:45:19;;;;;;;15.65;3.20;;;;;;;30.08;29.29;97985.97;6159811;23;20115;-83
2021/05/30 06:47:45;;;;;;;15.73;3.38;;;;;;;30.37;29.22;97994.41;6160176;23;20017;-83
2021/05/30 06:50:12;;;;;;;14.75;3.90;;;;;;;30.69;28.66;97990.34;6159181;23;20024;-84
2021/05/30 06:52:42;;;;;;;14.93;4.47;;;;;;;30.63;28.50;97989.56;6185555;23;20020;-83
2021/05/30 06:55:09;;;;;;;8.32;3.33;;;;;;;30.56;29.06;97983.53;6187465;23;20020;-84
2021/05/30 06:57:35;;;;;;;21.02;4.25;;;;;;;30.71;28.95;97991.72;6162228;23;20346;-83
2021/05/30 07:00:03;;;;;;;13.55;5.55;;;;;;;30.98;28.90;97998.72;6159792;23;20017;-84
2021/05/30 07:02:29;;;;;;;11.20;3.90;;;;;;;30.86;28.92;97999.09;6184505;23;20017;-84
2021/05/30 07:04:58;;;;;;;13.20;3.80;;;;;;;30.67;29.27;97996.16;6185089;23;20032;-84
2021/05/30 07:07:24;;;;;;;17.88;3.70;;;;;;;30.88;29.43;98002.41;6135776;23;20021;-84
2021/05/30 07:09:50;;;;;;;11.27;3.70;;;;;;;31.26;29.08;97997.13;6183989;23;20321;-85
2021/05/30 07:12:16;;;;;;;12.10;7.40;;;;;;;31.59;28.76;97980.78;6184574;23;20037;-85
2021/05/30 07:14:45;;;;;;;10.48;3.75;;;;;;;31.54;28.82;97987.19;6185260;23;20068;-87
2021/05/30 07:17:11;;;;;;;15.75;4.03;;;;;;;31.77;28.50;97970.91;6110734;23;20028;-85
2021/05/30 07:19:37;;;;;;;17.92;4.38;;;;;;;32.01;28.42;97985.59;6135232;23;20017;-87
2021/05/30 07:22:04;;;;;;;12.73;4.55;;;;;;;31.98;28.40;97988.94;6110542;23;20063;-85
2021/05/30 07:24:30;;;;;;;21.83;4.70;;;;;;;31.88;28.46;97989.88;6135087;23;20528;-87
2021/05/30 07:26:56;;;;;;;16.77;5.00;;;;;;;31.92;28.54;97990.09;6184288;23;20016;-86
2021/05/30 07:29:22;;;;;;;18.20;3.42;;;;;;;31.87;28.57;97985.47;6185727;23;20052;-86
2021/05/30 07:31:48;;;;;;;9.98;3.30;;;;;;;31.87;28.64;98004.00;6184054;23;20075;-86
2021/05/30 07:34:14;;;;;;;13.45;4.35;;;;;;;31.87;29.08;97990.19;6184406;23;20067;-85
2021/05/30 07:36:41;;;;;;;15.43;3.65;;;;;;;32.08;28.75;97993.50;6134789;23;20408;-85
2021/05/30 07:39:07;;;;;;;9.57;3.40;;;;;;;32.33;28.76;98000.66;6159957;23;20047;-85
2021/05/30 07:41:34;;;;;;;9.05;3.30;;;;;;;32.55;28.43;97989.84;6111050;23;20013;-85
2021/05/30 07:44:00;;;;;;;13.63;2.92;;;;;;;32.78;27.97;97996.41;6183705;23;20397;-85
2021/05/30 07:46:26;;;;;;;16.15;3.40;;;;;;;32.81;28.22;97981.16;6187450;23;20049;-84
2021/05/30 07:48:52;;;;;;;10.20;2.97;;;;;;;33.12;27.91;97974.03;6135290;23;20013;-85
2021/05/30 07:51:18;;;;;;;10.77;2.80;;;;;;;32.91;28.08;97983.75;6159141;23;20028;-85
2021/05/30 07:53:45;;;;;;;10.15;3.22;;;;;;;32.73;28.51;97985.44;6184789;23;20072;-85
2021/05/30 07:56:11;;;;;;;12.68;3.50;;;;;;;32.81;28.32;97981.16;6186365;23;20013;-85
2021/05/30 07:58:38;;;;;;;7.78;2.53;;;;;;;32.82;28.23;97988.34;6190935;23;20021;-84
2021/05/30 08:01:06;;;;;;;5.38;2.10;;;;;;;32.79;28.34;97983.41;6199354;23;20025;-85
2021/05/30 08:03:32;;;;;;;12.88;2.33;;;;;;;32.97;28.28;97979.81;6197357;23;20021;-86
2021/05/30 08:05:58;;;;;;;14.48;2.65;;;;;;;32.86;28.57;97983.84;6185806;23;20027;-86
2021/05/30 08:08:24;;;;;;;9.00;2.08;;;;;;;32.64;28.38;97988.03;6160303;23;20095;-87
2021/05/30 08:10:50;;;;;;;7.80;2.00;;;;;;;32.52;28.55;97984.91;6184844;23;20128;-86
2021/05/30 08:13:16;;;;;;;5.97;1.95;;;;;;;31.95;28.91;97980.41;6137652;23;20024;-83
2021/05/30 08:15:47;;;;;;;5.88;1.98;;;;;;;31.76;29.42;97980.31;6139093;23;20437;-86
2021/05/30 08:18:13;;;;;;;7.05;1.70;;;;;;;31.28;29.88;97975.53;6188360;23;20017;-85
2021/05/30 08:20:39;;;;;;;5.30;2.05;;;;;;;30.67;30.71;97985.13;6162731;23;20063;-86
2021/05/30 08:23:05;;;;;;;4.25;2.00;;;;;;;30.45;31.10;97988.31;6163181;23;20021;-84
2021/05/30 08:25:31;;;;;;;8.02;2.00;;;;;;;30.48;31.11;97973.94;6189297;23;20021;-87
2021/05/30 08:27:57;;;;;;;8.95;1.92;;;;;;;30.55;31.19;97976.41;6161904;23;20040;-85
2021/05/30 08:30:23;;;;;;;5.68;1.90;;;;;;;30.34;31.65;97974.88;6187805;23;20365;-85
2021/05/30 08:32:49;;;;;;;6.82;1.92;;;;;;;30.34;31.84;97991.41;6187557;23;20021;-85
2021/05/30 08:35:15;;;;;;;21.92;2.50;;;;;;;30.09;33.75;98001.44;6186051;23;20095;-88
2021/05/30 08:37:44;;;;;;;10.68;3.60;;;;;;;30.00;34.56;97986.56;6194182;23;20023;-85
2021/05/30 08:40:17;;;;;;;24.33;4.20;;;;;;;29.65;37.29;97985.59;6141045;23;20029;-85
2021/05/30 08:42:45;;;;;;;14.88;3.10;;;;;;;29.66;36.93;97976.22;6161650;23;20013;-84
2021/05/30 08:45:11;;;;;;;15.60;3.63;;;;;;;29.77;38.30;97971.50;6185885;23;20017;-84
2021/05/30 08:47:37;;;;;;;14.70;2.90;;;;;;;29.96;38.85;97986.31;6190668;23;20017;-84
2021/05/30 08:50:04;;;;;;;13.15;2.90;;;;;;;30.07;39.37;97981.59;6176921;23;20024;-85
2021/05/30 08:52:32;;;;;;;12.52;3.70;;;;;;;30.31;39.81;97991.97;6148262;23;20021;-84
2021/05/30 08:54:58;;;;;;;16.58;3.22;;;;;;;30.52;38.41;97976.97;6161132;23;20021;-85
2021/05/30 08:57:24;;;;;;;17.60;3.80;;;;;;;30.58;39.42;97986.00;6160705;23;20027;-84
2021/05/30 08:59:54;;;;;;;18.77;3.65;;;;;;;30.79;39.74;97972.94;6188379;23;20017;-84
2021/05/30 09:02:21;;;;;;;14.05;3.22;;;;;;;31.07;39.38;97972.16;6137021;23;20024;-84
2021/05/30 09:04:56;;;;;;;11.77;3.70;;;;;;;31.16;38.80;97980.63;6186253;23;20027;-84
2021/05/30 09:07:45;;;;;;;16.10;3.00;;;;;;;30.78;37.91;97983.16;6162515;23;20310;-85
2021/05/30 09:10:16;;;;;;;11.25;3.00;;;;;;;30.65;38.02;97981.81;6161359;23;20037;-84
2021/05/30 09:12:42;;;;;;;10.77;2.90;;;;;;;30.95;37.86;97991.00;6137408;23;20021;-85
2021/05/30 09:15:23;;;;;;;11.57;2.97;;;;;;;31.18;37.64;98006.84;6161079;23;20023;-85
2021/05/30 09:18:12;;;;;;;9.15;3.00;;;;;;;31.40;38.12;98019.34;6185827;23;20027;-86
2021/05/30 09:20:58;;;;;;;13.93;2.88;;;;;;;31.50;37.82;98010.16;6160434;23;20048;-84
2021/05/30 09:23:35;;;;;;;8.40;2.85;;;;;;;31.72;36.99;98042.81;6161236;23;20017;-85
2021/05/30 09:26:20;;;;;;;8.02;2.83;;;;;;;31.84;36.22;98029.41;6185725;23;20021;-85
2021/05/30 09:29:04;;;;;;;6.88;2.72;;;;;;;32.04;36.50;98029.19;6163942;23;20021;-84
2021/05/30 09:31:30;;;;;;;13.02;3.20;;;;;;;32.44;36.47;98010.47;6161607;23;20032;-84
2021/05/30 09:33:56;;;;;;;12.93;3.55;;;;;;;32.74;35.48;98031.34;6164663;23;20027;-82
2021/05/30 09:36:22;;;;;;;9.88;3.45;;;;;;;32.75;35.29;98021.91;6162707;23;20435;-83
2021/05/30 09:38:48;;;;;;;14.55;3.25;;;;;;;32.51;33.45;98021.19;6111516;23;20028;-85
2021/05/30 09:41:15;;;;;;;10.18;2.80;;;;;;;31.74;33.86;98015.69;6161277;23;20101;-85
2021/05/30 09:43:51;;;;;;;7.70;2.17;;;;;;;31.54;34.03;98016.75;6160852;23;20028;-83
2021/05/30 09:46:18;;;;;;;5.45;1.85;;;;;;;31.21;33.83;98033.03;6161079;23;20021;-84
2021/05/30 09:49:04;;;;;;;7.45;2.00;;;;;;;30.93;34.98;98032.69;6160774;23;20017;-83
2021/05/30 09:51:38;;;;;;;12.93;1.80;;;;;;;30.40;35.75;98050.94;6185491;23;20017;-86
2021/05/30 09:54:15;;;;;;;6.82;1.70;;;;;;;29.73;36.61;98037.34;6160853;23;20017;-84
2021/05/30 09:56:49;;;;;;;9.45;1.98;;;;;;;29.33;37.08;98026.38;6138694;23;20025;-84
2021/05/30 09:59:19;;;;;;;4.78;1.67;;;;;;;28.91;37.83;98043.94;6185540;23;20017;-84
2021/05/30 10:01:58;;;;;;;6.22;2.05;;;;;;;28.60;38.38;98040.31;6184968;23;20040;-84
2021/05/30 10:04:28;;;;;;;8.07;2.25;;;;;;;28.24;39.37;98051.16;6137751;23;20052;-84
2021/05/30 10:06:56;;;;;;;3.10;1.52;;;;;;;27.91;39.89;98055.13;6160975;23;20445;-84
2021/05/30 10:09:26;;;;;;;5.20;2.05;;;;;;;27.53;40.59;98060.66;6160789;23;20032;-87
2021/05/30 10:11:52;;;;;;;6.22;2.00;;;;;;;27.43;41.08;98070.72;6136987;23;20029;-83
2021/05/30 10:14:18;;;;;;;7.30;1.85;;;;;;;27.01;42.91;98076.91;6189486;23;20013;-84
2021/05/30 10:16:44;;;;;;;3.80;1.80;;;;;;;26.79;44.28;98105.22;6187092;23;20068;-85
2021/05/30 10:19:23;;;;;;;5.70;2.65;;;;;;;26.52;45.52;98110.69;6184926;23;20020;-83
2021/05/30 10:21:53;;;;;;;8.93;3.67;;;;;;;26.42;46.50;98118.72;6161348;23;20024;-85
2021/05/30 10:24:19;;;;;;;9.73;4.00;;;;;;;25.97;49.27;98124.44;6136091;23;20051;-85
2021/05/30 10:26:45;;;;;;;7.72;3.60;;;;;;;25.42;51.02;98107.69;6186605;23;20021;-86
2021/05/30 10:29:13;;;;;;;7.50;3.63;;;;;;;24.83;52.10;98109.91;6160249;23;20029;-85
2021/05/30 10:31:41;;;;;;;13.93;3.63;;;;;;;24.50;54.96;98115.28;6135998;23;20016;-85
2021/05/30 10:34:10;;;;;;;8.52;3.80;;;;;;;24.24;55.59;98131.09;6159267;23;20020;-86
2021/05/30 10:37:02;;;;;;;16.67;4.30;;;;;;;24.02;57.18;98124.59;6186057;23;20024;-85
2021/05/30 10:39:28;;;;;;;16.30;4.15;;;;;;;23.92;56.28;98126.03;6159526;23;20082;-86
2021/05/30 10:42:17;;;;;;;9.65;3.42;;;;;;;23.66;57.04;98121.91;6186407;23;20108;-87
2021/05/30 10:44:54;;;;;;;7.40;3.50;;;;;;;23.58;56.93;98154.09;6112636;23;20017;-85
2021/05/30 10:47:21;;;;;;;9.63;4.30;;;;;;;23.46;57.35;98160.38;6160504;23;20017;-86
2021/05/30 10:50:21;;;;;;;8.55;4.90;;;;;;;23.25;57.77;98159.03;6160612;23;20024;-87
2021/05/30 10:52:47;;;;;;;11.27;5.40;;;;;;;23.09;59.09;98150.66;6161136;23;20460;-86
2021/05/30 10:55:18;;;;;;;15.88;5.68;;;;;;;22.97;59.30;98156.09;6159927;23;20020;-87
2021/05/30 10:57:48;;;;;;;10.40;4.97;;;;;;;22.74;59.62;98151.34;6112249;23;20028;-86
2021/05/30 11:00:20;;;;;;;9.07;4.85;;;;;;;22.63;60.00;98165.75;6145058;23;20352;-87
2021/05/30 11:03:13;;;;;;;8.25;5.50;;;;;;;22.55;60.28;98161.44;6189741;23;20522;-87
2021/05/30 11:06:06;;;;;;;12.10;5.10;;;;;;;22.41;60.64;98147.13;6155602;23;20021;-88
2021/05/30 11:08:31;;;;;;;10.50;5.50;;;;;;;22.39;60.29;98153.91;6184475;23;20017;-87
2021/05/30 11:11:19;;;;;;;6.20;4.55;;;;;;;22.43;59.93;98149.66;6186285;23;20334;-88
2021/05/30 11:13:55;;;;;;;8.07;4.38;;;;;;;22.59;59.71;98137.31;6136200;23;20017;-87
2021/05/30 11:16:22;;;;;;;10.80;5.28;;;;;;;22.82;62.16;98134.66;6088047;23;20017;-88
2021/05/30 11:19:09;;;;;;;9.43;5.10;;;;;;;23.11;60.18;98129.47;6110622;23;20024;-87
2021/05/30 11:21:37;;;;;;;10.23;4.90;;;;;;;23.33;59.50;98127.03;6160950;23;20020;-88
2021/05/30 11:24:07;;;;;;;13.97;5.57;;;;;;;23.34;58.99;98124.06;6138783;23;20028;-90
2021/05/30 11:26:33;;;;;;;14.73;5.70;;;;;;;23.48;58.55;98120.06;6160350;23;20256;-86
2021/05/30 11:28:59;;;;;;;14.13;10.45;;;;;;;23.60;58.63;98113.78;6159765;23;20536;-89
2021/05/30 11:31:26;;;;;;;11.80;7.03;;;;;;;23.85;57.70;98098.03;6112114;23;20021;-87